Weather Data

Pearl Creek Farm: 8878 N Farm Road 75, Walnut Grove MO 65770

<== Previous Day (Friday 22 Apr 2016) | Next Day (Sunday 24 Apr 2016) ==>

Summary Precipitation Data For Saturday 23 April 2016

ElementValueUnits
Precipitation0"
NotesAny precipitation for this day was included with a multiple-day report on 24 April 2016.
SourcePearl Creek Farm

Summary Temperature Data For Saturday 23 April 2016

ElementValueUnits
High Temperature79 oF
Low Temperature47 oF
Average Temperature65 oF
High Humidity86 %
Low Humidity32 %
Average Humidity58 %
SourceSpringfield-Branson National Airport (SGF)

Detail Temperature Data For Saturday 23 April 2016

Date / TimeTemp (F)RH (%)Dew Pt (F)Report Date / TimeSource
2016-04-23 03:52:00 47 86 43.0 2017-12-29 17:00:26.17417 Springfield-Branson National Airport (SGF)
2016-04-23 04:52:00 48 86 44.0 2017-12-29 17:00:26.17417 Springfield-Branson National Airport (SGF)
2016-04-23 00:52:00 53 80 47.0 2017-12-29 17:00:26.17417 Springfield-Branson National Airport (SGF)
2016-04-23 01:52:00 51 83 46.0 2017-12-29 17:00:26.17417 Springfield-Branson National Airport (SGF)
2016-04-23 02:52:00 49 86 45.0 2017-12-29 17:00:26.17417 Springfield-Branson National Airport (SGF)
2016-04-23 05:52:00 50 86 46.0 2017-12-29 17:00:26.17417 Springfield-Branson National Airport (SGF)
2016-04-23 06:52:00 56 81 50.0 2017-12-29 17:00:26.17417 Springfield-Branson National Airport (SGF)
2016-04-23 07:52:00 62 70 52.0 2017-12-29 17:00:26.17417 Springfield-Branson National Airport (SGF)
2016-04-23 08:52:00 66 61 52.0 2017-12-29 17:00:26.17417 Springfield-Branson National Airport (SGF)
2016-04-23 09:52:00 70 55 53.0 2017-12-29 17:00:26.17417 Springfield-Branson National Airport (SGF)
2016-04-23 10:52:00 72 46 50.0 2017-12-29 17:00:26.17417 Springfield-Branson National Airport (SGF)
2016-04-23 11:52:00 74 38 47.0 2017-12-29 17:00:26.17417 Springfield-Branson National Airport (SGF)
2016-04-23 12:52:00 76 36 47.0 2017-12-29 17:00:26.17417 Springfield-Branson National Airport (SGF)
2016-04-23 13:52:00 76 36 47.0 2017-12-29 17:00:26.17417 Springfield-Branson National Airport (SGF)
2016-04-23 14:52:00 78 33 47.0 2017-12-29 17:00:26.17417 Springfield-Branson National Airport (SGF)
2016-04-23 15:52:00 79 32 47.0 2017-12-29 17:00:26.17417 Springfield-Branson National Airport (SGF)
2016-04-23 16:52:00 78 32 46.0 2017-12-29 17:00:26.17417 Springfield-Branson National Airport (SGF)
2016-04-23 17:52:00 76 40 50.0 2017-12-29 17:00:26.17417 Springfield-Branson National Airport (SGF)
2016-04-23 18:52:00 72 40 46.0 2017-12-29 17:00:26.17417 Springfield-Branson National Airport (SGF)
2016-04-23 19:52:00 67 51 48.0 2017-12-29 17:00:26.17417 Springfield-Branson National Airport (SGF)
2016-04-23 20:52:00 67 53 49.0 2017-12-29 17:00:26.17417 Springfield-Branson National Airport (SGF)
2016-04-23 21:52:00 63 60 49.0 2017-12-29 17:00:26.17417 Springfield-Branson National Airport (SGF)
2016-04-23 22:52:00 62 62 49.0 2017-12-29 17:00:26.17417 Springfield-Branson National Airport (SGF)
2016-04-23 23:52:00 62 62 49.0 2017-12-29 17:00:26.17417 Springfield-Branson National Airport (SGF)

A total of 24 rows are displayed.